Time;durP1;ratioP1;P1;durP2;ratioP2;P2;SDS_P1;SDS_P2;PMS_P1;PMS_P2;Temp;Humidity;BMP_temperature;BMP_pressure;BME280_temperature;BME280_humidity;BME280_pressure;Samples;Min_cycle;Max_cycle;Signal;HPM_P1;HPM_P2
2023/07/07 00:02:23;;;;;;;;;;;;;;;29.71;34.02;94432.31;4999315;28;9017;-56
2023/07/07 00:04:50;;;;;;;;;;;;;;;29.71;34.04;94429.53;4982594;28;6998;-63
2023/07/07 00:07:16;;;;;;;;;;;;;;;29.71;34.55;94435.09;4967241;28;8901;-64
2023/07/07 00:09:42;;;;;;;;;;;;;;;29.69;34.56;94427.28;4965847;28;7308;-64
2023/07/07 00:12:09;;;;;;;;;;;;;;;29.72;33.59;94437.31;4965858;28;9091;-64
2023/07/07 00:14:36;;;;;;;;;;;;;;;29.72;34.03;94425.47;4973739;28;7586;-64
2023/07/07 00:17:02;;;;;;;;;;;;;;;29.69;33.97;94432.06;4966290;28;7048;-64
2023/07/07 00:19:32;;;;;;;;;;;;;;;29.72;34.24;94436.56;4972528;28;7356;-64
2023/07/07 00:22:06;;;;;;;;;;;;;;;29.68;34.40;94436.16;4997634;28;7405;-64
2023/07/07 00:24:33;;;;;;;;;;;;;;;29.70;34.24;94441.91;4983817;28;9154;-64
2023/07/07 00:27:00;;;;;;;;;;;;;;;29.68;34.24;94436.16;4967670;28;7062;-64
2023/07/07 00:29:29;;;;;;;;;;;;;;;29.67;34.05;94435.41;4984063;28;7975;-64
2023/07/07 00:31:58;;;;;;;;;;;;;;;29.68;34.33;94447.97;4981375;28;7442;-64
2023/07/07 00:34:28;;;;;;;;;;;;;;;29.68;33.51;94441.69;4983267;28;7257;-64
2023/07/07 00:36:54;;;;;;;;;;;;;;;29.66;33.49;94438.72;4997890;28;7052;-64
2023/07/07 00:39:22;;;;;;;;;;;;;;;29.65;33.63;94432.41;4965795;28;9588;-64
2023/07/07 00:41:54;;;;;;;;;;;;;;;29.66;34.30;94452.56;4967040;28;7062;-64
2023/07/07 00:44:26;;;;;;;;;;;;;;;29.66;34.50;94452.56;4973873;28;9134;-64
2023/07/07 00:46:52;;;;;;;;;;;;;;;29.66;34.31;94460.88;4965698;28;7181;-64
2023/07/07 00:49:22;;;;;;;;;;;;;;;29.63;33.55;94442.53;4984286;28;8561;-63
2023/07/07 00:52:02;;;;;;;;;;;;;;;29.63;34.07;94448.84;4983982;28;7322;-64
2023/07/07 00:54:38;;;;;;;;;;;;;;;29.63;34.30;94450.84;4984302;28;7193;-64
2023/07/07 00:57:24;;;;;;;;;;;;;;;29.62;34.09;94449.38;4985894;28;7073;-63
2023/07/07 00:59:50;;;;;;;;;;;;;;;29.58;34.09;94452.47;4974811;28;9319;-64
2023/07/07 01:02:25;;;;;;;;;;;;;;;29.62;34.15;94460.47;4985060;28;9186;-64
2023/07/07 01:04:57;;;;;;;;;;;;;;;29.61;33.48;94459.72;4983234;28;7137;-64
2023/07/07 01:07:42;;;;;;;;;;;;;;;29.62;34.38;94458.44;4983044;28;9155;-64
2023/07/07 01:10:11;;;;;;;;;;;;;;;29.59;33.54;94456.00;4969270;28;7220;-64
2023/07/07 01:12:37;;;;;;;;;;;;;;;29.59;33.66;94453.22;4982069;28;7253;-64
2023/07/07 01:15:04;;;;;;;;;;;;;;;29.57;34.49;94450.25;4980560;28;9471;-64
2023/07/07 01:18:13;;;;;;;;;;;;;;;29.59;34.01;94456.00;4980259;28;7236;-64
2023/07/07 01:20:42;;;;;;;;;;;;;;;29.59;34.24;94458.75;4987814;28;6970;-64
2023/07/07 01:23:56;;;;;;;;;;;;;;;29.58;33.70;94465.59;4985690;28;7262;-64
2023/07/07 01:27:15;;;;;;;;;;;;;;;29.57;34.11;94466.88;4984425;28;7565;-63
2023/07/07 01:30:18;;;;;;;;;;;;;;;29.56;34.19;94460.56;4984155;28;7348;-64
2023/07/07 01:32:46;;;;;;;;;;;;;;;29.55;33.80;94458.34;4983556;28;9086;-63
2023/07/07 01:35:23;;;;;;;;;;;;;;;29.54;34.04;94449.28;4984391;28;7058;-64
2023/07/07 01:37:55;;;;;;;;;;;;;;;29.56;33.20;94454.28;4985731;28;9258;-64
2023/07/07 01:41:02;;;;;;;;;;;;;;;29.54;34.25;94451.31;4965773;28;6998;-64
2023/07/07 01:43:44;;;;;;;;;;;;;;;29.54;33.80;94448.53;4968783;28;6979;-63
2023/07/07 01:46:34;;;;;;;;;;;;;;;29.52;34.19;94457.38;4980956;28;7506;-64
2023/07/07 01:50:05;;;;;;;;;;;;;;;29.53;33.75;94450.56;4982791;28;7074;-64
2023/07/07 01:53:03;;;;;;;;;;;;;;;29.53;34.31;94463.69;4894182;29;9103;-63
2023/07/07 01:55:47;;;;;;;;;;;;;;;29.52;34.12;94462.94;4896147;29;7120;-64
2023/07/07 01:58:19;;;;;;;;;;;;;;;29.48;33.99;94454.19;4896567;29;7229;-64
2023/07/07 02:00:49;;;;;;;;;;;;;;;29.52;34.05;94462.19;4895248;29;7260;-64
2023/07/07 02:03:28;;;;;;;;;;;;;;;29.51;33.92;94461.47;4894158;29;7200;-64
2023/07/07 02:06:02;;;;;;;;;;;;;;;29.51;33.48;94466.25;4895283;29;9698;-64
2023/07/07 02:08:41;;;;;;;;;;;;;;;29.51;33.47;94464.22;4880289;29;9190;-64
2023/07/07 02:11:10;;;;;;;;;;;;;;;29.49;33.29;94460.50;4879751;29;7036;-63
2023/07/07 02:13:53;;;;;;;;;;;;;;;29.51;34.00;94471.78;4892652;29;7235;-64
2023/07/07 02:16:29;;;;;;;;;;;;;;;29.49;33.60;94469.53;4895111;29;9469;-64
2023/07/07 02:18:56;;;;;;;;;;;;;;;29.50;33.22;94475.81;4896001;29;7321;-64
2023/07/07 02:21:46;;;;;;;;;;;;;;;29.49;33.15;94474.34;4878849;29;9242;-64
2023/07/07 02:24:13;;;;;;;;;;;;;;;29.49;33.82;94477.13;4895039;29;8454;-56
2023/07/07 02:26:50;;;;;;;;;;;;;;;29.49;34.02;94474.34;4919493;28;7237;-56
2023/07/07 02:29:17;;;;;;;;;;;;;;;29.50;33.48;94484.13;4959032;28;9074;-56
2023/07/07 02:32:03;;;;;;;;;;;;;;;29.49;34.16;94488.22;4978363;28;6844;-56
2023/07/07 02:34:39;;;;;;;;;;;;;;;29.49;33.83;94474.34;4984575;28;9449;-56
2023/07/07 02:37:18;;;;;;;;;;;;;;;29.49;33.69;94482.66;4964836;28;7602;-56
2023/07/07 02:39:46;;;;;;;;;;;;;;;29.48;33.56;94472.84;4983767;28;9078;-56
2023/07/07 02:42:17;;;;;;;;;;;;;;;29.47;33.60;94477.63;4981416;28;7282;-56
2023/07/07 02:45:02;;;;;;;;;;;;;;;29.46;33.51;94484.47;4966750;28;9134;-56
2023/07/07 02:47:29;;;;;;;;;;;;;;;29.45;34.45;94485.03;4966953;28;7411;-56
2023/07/07 02:50:19;;;;;;;;;;;;;;;29.46;33.68;94480.94;4981267;28;7253;-56
2023/07/07 02:52:48;;;;;;;;;;;;;;;29.46;34.20;94480.94;4990248;28;6986;-56
2023/07/07 02:55:28;;;;;;;;;;;;;;;29.46;33.45;94483.72;4980612;28;11106;-56
2023/07/07 02:57:59;;;;;;;;;;;;;;;29.45;34.03;94480.19;4998289;28;9235;-56
2023/07/07 03:00:29;;;;;;;;;;;;;;;29.43;34.18;94476.47;4995737;28;9204;-56
2023/07/07 03:02:55;;;;;;;;;;;;;;;29.43;33.50;94477.22;4978956;28;8473;-56
2023/07/07 03:05:21;;;;;;;;;;;;;;;29.42;34.12;94475.75;4967471;28;7085;-56
2023/07/07 03:07:49;;;;;;;;;;;;;;;29.43;34.29;94482.75;4965714;28;7054;-56
2023/07/07 03:10:15;;;;;;;;;;;;;;;29.42;34.03;94480.53;4982992;28;7012;-56
2023/07/07 03:12:41;;;;;;;;;;;;;;;29.41;34.02;94485.31;5001855;28;9900;-56
2023/07/07 03:15:09;;;;;;;;;;;;;;;29.41;33.98;94473.47;4998140;28;8569;-56
2023/07/07 03:17:39;;;;;;;;;;;;;;;29.37;33.83;94476.59;4967496;28;9355;-56
2023/07/07 03:20:08;;;;;;;;;;;;;;;29.39;34.56;94473.28;4981779;28;7374;-56
2023/07/07 03:22:37;;;;;;;;;;;;;;;29.36;34.27;94477.84;4980901;28;7199;-56
2023/07/07 03:25:04;;;;;;;;;;;;;;;29.36;34.72;94485.44;4965956;28;7182;-56
2023/07/07 03:27:32;;;;;;;;;;;;;;;29.38;34.13;94485.66;4985819;28;7059;-56
2023/07/07 03:29:58;;;;;;;;;;;;;;;29.35;33.81;94487.47;4967268;28;7649;-57
2023/07/07 03:32:27;;;;;;;;;;;;;;;29.35;34.00;94481.94;4967437;28;9162;-56
2023/07/07 03:34:55;;;;;;;;;;;;;;;29.36;33.62;94482.69;4984444;28;7234;-62
2023/07/07 03:37:21;;;;;;;;;;;;;;;29.33;34.71;94490.03;4983466;28;7072;-62
2023/07/07 03:39:58;;;;;;;;;;;;;;;29.36;34.35;94488.22;5001987;28;7244;-62
2023/07/07 03:42:25;;;;;;;;;;;;;;;29.35;33.98;94478.41;4968374;28;8717;-62
2023/07/07 03:45:02;;;;;;;;;;;;;;;29.34;34.21;94482.47;4972501;28;7182;-62
2023/07/07 03:48:14;;;;;;;;;;;;;;;29.33;33.63;94492.78;4977723;28;9164;-62
2023/07/07 03:50:43;;;;;;;;;;;;;;;29.33;34.59;94486.50;4969385;28;9057;-62
2023/07/07 03:53:35;;;;;;;;;;;;;;;29.34;34.35;94485.25;4949386;28;6998;-62
2023/07/07 03:56:03;;;;;;;;;;;;;;;29.32;34.07;94490.56;4950472;28;9075;-62
2023/07/07 03:59:07;;;;;;;;;;;;;;;29.34;33.99;94485.25;4958047;28;8849;-62
2023/07/07 04:01:33;;;;;;;;;;;;;;;29.33;34.61;94483.72;4887376;29;6992;-62
2023/07/07 04:04:16;;;;;;;;;;;;;;;29.32;34.04;94479.47;4887581;29;7300;-62
2023/07/07 04:06:43;;;;;;;;;;;;;;;29.31;34.59;94480.75;4887113;29;6978;-62
2023/07/07 04:09:11;;;;;;;;;;;;;;;29.31;34.67;94480.75;4888435;29;6990;-62
2023/07/07 04:11:37;;;;;;;;;;;;;;;29.29;34.60;94478.53;4890227;29;7479;-62
2023/07/07 04:14:33;;;;;;;;;;;;;;;29.30;34.65;94476.47;4887546;29;7159;-62
2023/07/07 04:16:59;;;;;;;;;;;;;;;29.29;34.59;94480.53;4841885;29;7047;-62
2023/07/07 04:19:45;;;;;;;;;;;;;;;29.29;34.96;94483.31;4841598;29;7394;-62
2023/07/07 04:22:18;;;;;;;;;;;;;;;29.23;34.22;94474.38;4840553;29;7009;-62
2023/07/07 04:25:22;;;;;;;;;;;;;;;29.29;34.51;94477.78;4840305;29;6999;-62
2023/07/07 04:27:51;;;;;;;;;;;;;;;29.28;34.70;94476.25;4841869;29;7237;-62
2023/07/07 04:30:27;;;;;;;;;;;;;;;29.28;33.88;94492.88;4856591;29;7505;-62
2023/07/07 04:33:03;;;;;;;;;;;;;;;29.27;34.47;94496.94;4856512;29;9121;-62
2023/07/07 04:35:58;;;;;;;;;;;;;;;29.27;34.75;94506.03;4887155;29;6995;-62
2023/07/07 04:38:30;;;;;;;;;;;;;;;29.22;34.40;94495.03;4907663;29;7465;-62
2023/07/07 04:41:30;;;;;;;;;;;;;;;29.24;34.04;94511.84;4908148;29;7454;-62
2023/07/07 04:44:24;;;;;;;;;;;;;;;29.23;35.19;94510.38;4908543;29;7314;-62
2023/07/07 04:47:02;;;;;;;;;;;;;;;29.24;34.03;94506.31;4893482;29;7077;-63
2023/07/07 04:49:47;;;;;;;;;;;;;;;29.21;35.16;94510.88;4908063;29;7558;-63
2023/07/07 04:52:40;;;;;;;;;;;;;;;29.21;35.24;94516.44;4908350;29;7623;-63
2023/07/07 04:55:13;;;;;;;;;;;;;;;29.17;35.01;94507.69;4984429;28;6993;-64
2023/07/07 04:57:41;;;;;;;;;;;;;;;29.20;34.95;94517.72;4968898;28;9519;-62
2023/07/07 05:00:08;;;;;;;;;;;;;;;29.21;35.10;94515.72;4969875;28;9154;-63
2023/07/07 05:02:37;;;;;;;;;;;;;;;29.22;34.80;94519.97;4972314;28;7676;-63
2023/07/07 05:05:11;;;;;;;;;;;;;;;29.21;34.55;94518.47;4984450;28;9135;-63
2023/07/07 05:07:46;;;;;;;;;;;;;;;29.20;35.24;94520.50;5002028;28;9123;-63
2023/07/07 05:10:13;;;;;;;;;;;;;;;29.23;34.56;94518.69;4981622;28;8824;-64
2023/07/07 05:12:48;;;;;;;;;;;;;;;29.25;35.39;94521.69;4988009;28;8335;-64
2023/07/07 05:15:15;;;;;;;;;;;;;;;29.22;34.95;94517.94;5001704;28;9092;-64
2023/07/07 05:18:17;;;;;;;;;;;;;;;29.23;34.09;94519.41;4968063;28;7335;-64
2023/07/07 05:21:05;;;;;;;;;;;;;;;29.26;34.61;94523.16;4952224;28;9143;-64
2023/07/07 05:23:35;;;;;;;;;;;;;;;29.22;34.96;94528.28;4934457;28;9138;-63
2023/07/07 05:26:03;;;;;;;;;;;;;;;29.21;34.52;94527.50;4948283;28;6995;-64
2023/07/07 05:28:40;;;;;;;;;;;;;;;29.20;34.35;94530.81;4949554;28;9345;-64
2023/07/07 05:31:34;;;;;;;;;;;;;;;29.20;35.04;94534.34;4933349;28;9041;-64
2023/07/07 05:34:00;;;;;;;;;;;;;;;29.19;34.56;94532.84;4945710;28;7265;-64
2023/07/07 05:36:27;;;;;;;;;;;;;;;29.23;34.54;94530.50;4947683;28;6945;-64
2023/07/07 05:39:29;;;;;;;;;;;;;;;29.23;35.03;94529.78;4934090;28;7208;-63
2023/07/07 05:41:56;;;;;;;;;;;;;;;29.20;35.00;94536.38;4856361;29;7255;-62
2023/07/07 05:44:34;;;;;;;;;;;;;;;29.22;34.40;94540.09;4842039;29;9226;-63
2023/07/07 05:47:29;;;;;;;;;;;;;;;29.23;34.44;94540.84;4857599;29;9287;-63
2023/07/07 05:50:32;;;;;;;;;;;;;;;29.24;34.04;94536.78;4788250;29;7216;-63
2023/07/07 05:53:11;;;;;;;;;;;;;;;29.24;33.26;94542.34;4765275;30;9162;-62
2023/07/07 05:55:51;;;;;;;;;;;;;;;29.21;33.36;94540.63;4767213;30;7261;-63
2023/07/07 05:58:49;;;;;;;;;;;;;;;29.19;33.82;94537.66;4752692;30;7179;-63
2023/07/07 06:01:31;;;;;;;;;;;;;;;29.18;33.42;94536.91;4767766;30;9452;-63
2023/07/07 06:04:21;;;;;;;;;;;;;;;29.15;33.80;94532.38;4767163;30;9425;-62
2023/07/07 06:06:57;;;;;;;;;;;;;;;29.13;36.24;94531.41;4746202;30;7072;-63
2023/07/07 06:09:33;;;;;;;;;;;;;;;29.13;33.78;94543.25;4780587;30;9575;-63
2023/07/07 06:12:17;;;;;;;;;;;;;;;29.10;34.68;94536.75;4766266;30;7334;-63
2023/07/07 06:14:44;;;;;;;;;;;;;;;29.13;34.69;94542.50;4766664;30;7213;-61
2023/07/07 06:17:12;;;;;;;;;;;;;;;29.12;36.55;94546.56;4804665;29;8799;-63
2023/07/07 06:19:53;;;;;;;;;;;;;;;29.12;35.20;94541.03;4836560;29;8530;-63
2023/07/07 06:22:29;;;;;;;;;;;;;;;29.13;36.22;94542.50;4821814;29;8920;-63
2023/07/07 06:25:33;;;;;;;;;;;;;;;29.11;36.27;94545.81;4817731;29;9111;-63
2023/07/07 06:28:03;;;;;;;;;;;;;;;29.09;35.40;94543.59;4987421;28;7723;-62
2023/07/07 06:30:32;;;;;;;;;;;;;;;29.10;35.24;94536.75;4983840;28;8587;-62
2023/07/07 06:33:00;;;;;;;;;;;;;;;29.09;39.07;94545.59;4967891;28;9083;-63
2023/07/07 06:35:42;;;;;;;;;;;;;;;29.13;38.28;94551.56;4969956;28;7245;-63
2023/07/07 06:38:13;;;;;;;;;;;;;;;29.13;38.78;94546.03;4972638;28;7178;-62
2023/07/07 06:40:57;;;;;;;;;;;;;;;29.08;36.57;94535.78;4968323;28;7217;-63
2023/07/07 06:43:25;;;;;;;;;;;;;;;29.09;37.33;94545.59;4966094;28;9071;-62
2023/07/07 06:46:23;;;;;;;;;;;;;;;29.09;36.01;94551.88;4983109;28;7337;-62
2023/07/07 06:49:04;;;;;;;;;;;;;;;29.05;34.97;94553.47;4961688;28;9812;-62
2023/07/07 06:51:31;;;;;;;;;;;;;;;29.08;34.74;94547.63;4943587;28;7033;-63
2023/07/07 06:54:12;;;;;;;;;;;;;;;29.07;35.18;94543.38;4947241;28;7352;-62
2023/07/07 06:56:38;;;;;;;;;;;;;;;29.05;34.48;94551.47;4951471;28;7058;-63
2023/07/07 06:59:04;;;;;;;;;;;;;;;29.03;35.25;94551.25;4959732;28;7378;-62
2023/07/07 07:01:30;;;;;;;;;;;;;;;29.06;34.36;94552.94;4956286;28;7213;-63
2023/07/07 07:04:00;;;;;;;;;;;;;;;29.04;33.89;94558.25;4957656;28;7336;-63
2023/07/07 07:06:27;;;;;;;;;;;;;;;29.05;35.00;94565.31;4957529;28;7025;-63
2023/07/07 07:08:54;;;;;;;;;;;;;;;29.05;35.05;94562.53;4942480;28;7170;-63
2023/07/07 07:11:23;;;;;;;;;;;;;;;29.03;34.64;94559.56;4941103;28;7330;-63
2023/07/07 07:13:58;;;;;;;;;;;;;;;29.02;34.34;94560.81;4941944;28;7964;-63
2023/07/07 07:16:29;;;;;;;;;;;;;;;29.04;34.05;94568.59;4944792;28;6995;-63
2023/07/07 07:19:13;;;;;;;;;;;;;;;29.02;34.61;94565.59;4961504;28;9359;-63
2023/07/07 07:21:52;;;;;;;;;;;;;;;29.00;34.62;94563.38;4962460;28;9054;-63
2023/07/07 07:24:24;;;;;;;;;;;;;;;28.99;34.32;94567.41;4966259;28;9431;-63
2023/07/07 07:26:51;;;;;;;;;;;;;;;29.01;33.83;94569.66;4982176;28;7327;-63
2023/07/07 07:29:17;;;;;;;;;;;;;;;29.01;34.10;94569.66;4962856;28;7922;-63
2023/07/07 07:31:44;;;;;;;;;;;;;;;29.00;34.48;94562.63;4979052;28;7217;-63
2023/07/07 07:34:25;;;;;;;;;;;;;;;29.00;34.38;94571.69;4980959;28;8418;-62
2023/07/07 07:36:53;;;;;;;;;;;;;;;29.02;34.59;94569.13;4980045;28;7589;-64
2023/07/07 07:39:20;;;;;;;;;;;;;;;29.01;34.88;94570.38;4978014;28;9133;-64
2023/07/07 07:41:51;;;;;;;;;;;;;;;29.04;34.75;94569.34;4977110;28;7013;-64
2023/07/07 07:44:22;;;;;;;;;;;;;;;29.05;35.18;94570.09;4979994;28;6947;-64
2023/07/07 07:47:22;;;;;;;;;;;;;;;29.05;34.63;94567.31;4981292;28;7243;-64
2023/07/07 07:49:48;;;;;;;;;;;;;;;29.05;35.15;94565.31;4944117;28;9172;-64
2023/07/07 07:52:15;;;;;;;;;;;;;;;29.07;34.94;94573.06;4942966;28;6989;-63
2023/07/07 07:54:46;;;;;;;;;;;;;;;29.03;34.48;94567.88;4952295;28;9212;-63
2023/07/07 07:57:12;;;;;;;;;;;;;;;29.07;34.31;94573.84;4957996;28;7230;-64
2023/07/07 07:59:38;;;;;;;;;;;;;;;29.08;35.73;94577.31;4941293;28;8877;-64
2023/07/07 08:02:04;;;;;;;;;;;;;;;29.06;35.11;94566.03;4963991;28;7133;-64
2023/07/07 08:04:31;;;;;;;;;;;;;;;29.05;35.03;94559.78;4959637;28;7465;-64
2023/07/07 08:07:01;;;;;;;;;;;;;;;29.09;34.72;94567.75;4955481;28;7270;-63
2023/07/07 08:09:56;;;;;;;;;;;;;;;29.08;33.96;94561.47;4942740;28;7488;-64
2023/07/07 08:12:23;;;;;;;;;;;;;;;29.08;34.54;94553.16;4865030;29;7653;-64
2023/07/07 08:14:56;;;;;;;;;;;;;;;29.10;34.64;94553.38;4863374;29;7143;-62
2023/07/07 08:17:22;;;;;;;;;;;;;;;29.12;34.54;94566.72;4863779;29;9410;-62
2023/07/07 08:19:48;;;;;;;;;;;;;;;29.12;35.24;94566.72;4861488;29;8650;-62
2023/07/07 08:22:24;;;;;;;;;;;;;;;29.09;35.54;94564.97;4846878;29;7236;-62
2023/07/07 08:25:21;;;;;;;;;;;;;;;29.12;34.55;94568.72;4872141;29;9082;-62
2023/07/07 08:27:48;;;;;;;;;;;;;;;29.10;35.32;94572.75;4840154;29;9174;-62
2023/07/07 08:30:18;;;;;;;;;;;;;;;29.12;34.54;94579.81;4842429;29;7067;-62
2023/07/07 08:32:45;;;;;;;;;;;;;;;29.13;34.38;94570.94;4844019;29;7274;-62
2023/07/07 08:35:42;;;;;;;;;;;;;;;29.15;34.67;94570.41;4852475;29;7409;-61
2023/07/07 08:38:11;;;;;;;;;;;;;;;29.13;34.89;94573.72;4852811;29;9048;-62
2023/07/07 08:40:54;;;;;;;;;;;;;;;29.15;34.54;94578.72;4851250;29;7276;-62
2023/07/07 08:43:37;;;;;;;;;;;;;;;29.17;34.22;94582.50;4855952;29;6993;-62
2023/07/07 08:46:53;;;;;;;;;;;;;;;29.17;33.93;94582.50;4852879;29;7437;-62
2023/07/07 08:49:50;;;;;;;;;;;;;;;29.18;34.21;94577.69;4889338;29;9027;-62
2023/07/07 08:52:34;;;;;;;;;;;;;;;29.18;33.55;94583.25;4926315;28;7145;-62
2023/07/07 08:55:52;;;;;;;;;;;;;;;29.18;34.36;94574.94;4909584;29;9025;-62
2023/07/07 08:58:32;;;;;;;;;;;;;;;29.18;34.63;94580.47;4893217;29;7066;-62
2023/07/07 09:01:27;;;;;;;;;;;;;;;29.18;34.56;94574.94;4889177;29;7253;-62
2023/07/07 09:04:25;;;;;;;;;;;;;;;29.19;34.67;94584.75;4906148;28;7079;-62
2023/07/07 09:07:31;;;;;;;;;;;;;;;29.18;35.19;94581.22;4913806;29;7232;-62
2023/07/07 09:10:19;;;;;;;;;;;;;;;29.21;34.73;94571.13;4896353;29;9313;-61
2023/07/07 09:13:16;;;;;;;;;;;;;;;29.22;35.21;94567.06;4894109;29;7130;-62
2023/07/07 09:16:19;;;;;;;;;;;;;;;29.23;35.07;94565.78;4903006;29;7190;-61
2023/07/07 09:19:05;;;;;;;;;;;;;;;29.21;35.27;94560.03;4904145;29;7337;-62
2023/07/07 09:21:43;;;;;;;;;;;;;;;29.23;34.99;94563.03;4907104;29;9021;-62
2023/07/07 09:24:59;;;;;;;;;;;;;;;29.22;35.56;94561.50;4895723;29;7255;-61
2023/07/07 09:27:41;;;;;;;;;;;;;;;29.21;34.52;94562.81;4903073;29;7300;-62
2023/07/07 09:30:58;;;;;;;;;;;;;;;29.18;34.37;94561.09;4893692;29;7179;-62
2023/07/07 09:33:26;;;;;;;;;;;;;;;29.20;34.67;94564.81;4897655;29;7170;-62
2023/07/07 09:35:56;;;;;;;;;;;;;;;29.20;35.27;94561.28;4924533;28;8492;-61
2023/07/07 09:38:58;;;;;;;;;;;;;;;29.22;35.08;94565.03;4925779;28;7468;-62
2023/07/07 09:42:12;;;;;;;;;;;;;;;29.27;35.05;94566.22;4921602;29;8900;-62
2023/07/07 09:45:15;;;;;;;;;;;;;;;29.30;34.09;94560.34;4925384;29;7271;-62
2023/07/07 09:48:12;;;;;;;;;;;;;;;29.32;34.30;94563.31;4909817;29;7323;-62
2023/07/07 09:51:21;;;;;;;;;;;;;;;29.33;33.97;94566.84;4912188;29;9255;-62
2023/07/07 09:54:21;;;;;;;;;;;;;;;29.34;34.28;94566.31;4895227;29;9112;-62
2023/07/07 09:57:53;;;;;;;;;;;;;;;29.33;33.25;94567.59;4877676;29;7366;-62
2023/07/07 10:00:45;;;;;;;;;;;;;;;29.34;34.12;94562.81;4876450;29;6997;-62
2023/07/07 10:03:25;;;;;;;;;;;;;;;29.32;33.16;94552.25;4876561;29;7185;-62
2023/07/07 10:05:55;;;;;;;;;;;;;;;29.32;33.84;94559.84;4860280;29;9129;-62
2023/07/07 10:08:33;;;;;;;;;;;;;;;29.33;32.57;94567.59;4872423;29;7280;-62
2023/07/07 10:11:16;;;;;;;;;;;;;;;29.38;31.96;94557.69;4861010;29;7278;-62
2023/07/07 10:13:57;;;;;;;;;;;;;;;29.47;32.45;94554.50;4875187;29;7193;-62
2023/07/07 10:16:44;;;;;;;;;;;;;;;29.52;31.68;94554.41;4876816;29;7168;-62
2023/07/07 10:19:17;;;;;;;;;;;;;;;29.56;31.45;94551.28;4931334;29;7448;-62
2023/07/07 10:21:43;;;;;;;;;;;;;;;29.57;31.18;94553.53;4914964;29;7264;-62
2023/07/07 10:24:15;;;;;;;;;;;;;;;29.57;30.91;94553.53;4915237;29;7254;-62
2023/07/07 10:26:52;;;;;;;;;;;;;;;29.61;30.58;94553.97;4934501;29;9032;-62
2023/07/07 10:29:23;;;;;;;;;;;;;;;29.63;31.11;94542.34;4942105;28;7513;-62
2023/07/07 10:32:03;;;;;;;;;;;;;;;29.66;29.89;94549.59;4971078;28;7254;-62
2023/07/07 10:35:06;;;;;;;;;;;;;;;29.71;29.81;94554.28;4969266;28;9869;-63
2023/07/07 10:37:38;;;;;;;;;;;;;;;29.78;29.89;94551.63;4968446;28;7301;-63
2023/07/07 10:40:14;;;;;;;;;;;;;;;29.84;29.73;94557.06;4965943;28;7778;-64
2023/07/07 10:42:43;;;;;;;;;;;;;;;29.87;29.75;94558.78;4984337;28;9072;-64
2023/07/07 10:45:33;;;;;;;;;;;;;;;29.92;29.70;94557.91;4984663;28;9105;-63
2023/07/07 10:48:34;;;;;;;;;;;;;;;29.96;29.23;94560.34;4967171;28;7080;-64
2023/07/07 10:51:26;;;;;;;;;;;;;;;29.94;29.03;94558.13;4949729;28;7186;-64
2023/07/07 10:54:32;;;;;;;;;;;;;;;29.96;30.72;94561.09;4959115;28;7213;-64
2023/07/07 10:57:28;;;;;;;;;;;;;;;29.98;29.54;94555.75;4959706;28;7456;-64
2023/07/07 11:00:05;;;;;;;;;;;;;;;30.00;29.50;94549.66;4950839;28;7262;-64
2023/07/07 11:02:59;;;;;;;;;;;;;;;30.03;29.40;94552.13;4959388;28;8791;-64
2023/07/07 11:05:35;;;;;;;;;;;;;;;30.03;28.98;94554.16;4964167;28;9250;-64
2023/07/07 11:08:26;;;;;;;;;;;;;;;30.05;28.93;94549.56;4943921;28;7264;-64
2023/07/07 11:11:19;;;;;;;;;;;;;;;30.06;29.03;94537.19;4961168;28;9076;-64
2023/07/07 11:13:52;;;;;;;;;;;;;;;30.02;27.86;94536.00;4952247;28;9036;-64
2023/07/07 11:16:21;;;;;;;;;;;;;;;30.02;27.76;94542.31;4956149;28;8041;-64
2023/07/07 11:19:14;;;;;;;;;;;;;;;30.05;27.82;94538.47;4956943;28;7873;-64
2023/07/07 11:22:06;;;;;;;;;;;;;;;30.13;27.37;94541.31;4945287;28;9410;-63
2023/07/07 11:24:55;;;;;;;;;;;;;;;30.12;27.63;94529.50;4963764;28;8729;-64
2023/07/07 11:27:58;;;;;;;;;;;;;;;30.14;27.33;94543.59;4982610;28;8728;-64
2023/07/07 11:30:51;;;;;;;;;;;;;;;30.16;28.34;94529.91;4988074;28;7295;-64
2023/07/07 11:33:57;;;;;;;;;;;;;;;30.21;27.96;94531.06;4988737;28;7302;-64
2023/07/07 11:36:45;;;;;;;;;;;;;;;30.22;28.73;94527.00;4985703;28;7509;-64
2023/07/07 11:39:49;;;;;;;;;;;;;;;30.21;27.65;94526.25;4985349;28;9806;-64
2023/07/07 11:42:43;;;;;;;;;;;;;;;30.26;28.09;94532.97;4976831;28;7263;-64
2023/07/07 11:46:03;;;;;;;;;;;;;;;30.34;27.78;94528.28;4983982;28;7339;-56
2023/07/07 11:49:01;;;;;;;;;;;;;;;30.36;27.42;94526.44;4938139;28;7055;-56
2023/07/07 11:51:48;;;;;;;;;;;;;;;30.38;27.48;94512.75;4860122;29;7229;-56
2023/07/07 11:54:37;;;;;;;;;;;;;;;30.42;27.72;94521.53;4859069;29;9169;-55
2023/07/07 11:57:56;;;;;;;;;;;;;;;30.44;28.15;94509.88;4859967;29;7013;-56
2023/07/07 12:00:25;;;;;;;;;;;;;;;30.47;27.82;94508.81;4850696;29;7473;-56
2023/07/07 12:03:19;;;;;;;;;;;;;;;30.49;28.32;94506.22;4850341;29;7316;-56
2023/07/07 12:05:47;;;;;;;;;;;;;;;30.54;28.30;94508.09;4846308;29;7224;-56
2023/07/07 12:08:24;;;;;;;;;;;;;;;30.59;28.02;94509.25;4831153;29;9219;-56
2023/07/07 12:10:57;;;;;;;;;;;;;;;30.61;27.63;94506.69;4832686;29;7069;-55
2023/07/07 12:13:33;;;;;;;;;;;;;;;30.60;27.94;94494.13;4829094;29;6965;-56
2023/07/07 12:16:13;;;;;;;;;;;;;;;30.57;27.36;94492.41;4847109;29;8803;-56
2023/07/07 12:18:46;;;;;;;;;;;;;;;30.55;27.75;94492.97;4845800;29;7380;-56
2023/07/07 12:21:31;;;;;;;;;;;;;;;30.57;28.17;94487.59;4833918;29;7087;-56
2023/07/07 12:24:13;;;;;;;;;;;;;;;30.56;27.07;94499.25;4851173;29;9191;-56
2023/07/07 12:26:58;;;;;;;;;;;;;;;30.58;28.10;94486.31;4864914;29;6913;-56
2023/07/07 12:29:25;;;;;;;;;;;;;;;30.61;26.96;94484.47;4926545;28;7087;-56
2023/07/07 12:31:51;;;;;;;;;;;;;;;30.60;26.81;94483.75;4917201;29;7210;-56
2023/07/07 12:34:39;;;;;;;;;;;;;;;30.68;26.93;94489.34;4914289;29;9077;-56
2023/07/07 12:37:21;;;;;;;;;;;;;;;30.72;26.68;94495.31;4979022;28;7159;-56
2023/07/07 12:39:51;;;;;;;;;;;;;;;30.76;27.01;94487.38;4968876;28;7349;-56
2023/07/07 12:42:29;;;;;;;;;;;;;;;30.80;27.48;94485.75;4984933;28;7091;-56
2023/07/07 12:45:14;;;;;;;;;;;;;;;30.86;26.92;94485.63;4984764;28;7202;-56
2023/07/07 12:47:45;;;;;;;;;;;;;;;30.90;27.13;94486.81;4996472;28;7012;-56
2023/07/07 12:50:25;;;;;;;;;;;;;;;30.92;25.81;94475.16;4968288;28;8711;-55
2023/07/07 12:53:01;;;;;;;;;;;;;;;30.90;25.62;94472.91;4994233;28;8214;-55
2023/07/07 12:55:31;;;;;;;;;;;;;;;30.88;25.53;94474.75;4965600;28;7663;-64
2023/07/07 12:58:07;;;;;;;;;;;;;;;30.90;25.80;94472.16;4984249;28;9426;-63
2023/07/07 13:00:42;;;;;;;;;;;;;;;30.91;25.99;94470.88;4984204;28;7256;-63
2023/07/07 13:03:10;;;;;;;;;;;;;;;30.94;26.02;94470.53;4982800;28;7433;-63
2023/07/07 13:05:49;;;;;;;;;;;;;;;30.97;25.60;94471.47;4986715;28;6965;-63
2023/07/07 13:08:35;;;;;;;;;;;;;;;30.98;26.87;94464.63;4966851;28;8802;-63
2023/07/07 13:11:15;;;;;;;;;;;;;;;31.01;26.50;94469.09;4982961;28;9007;-63
2023/07/07 13:13:47;;;;;;;;;;;;;;;30.97;26.43;94457.59;4995216;28;9050;-63
2023/07/07 13:16:18;;;;;;;;;;;;;;;30.99;26.98;94458.50;4981258;28;7205;-62
2023/07/07 13:18:44;;;;;;;;;;;;;;;30.99;27.37;94458.50;4966130;28;6991;-63
2023/07/07 13:21:20;;;;;;;;;;;;;;;31.03;27.04;94464.50;4967524;28;7297;-63
2023/07/07 13:23:50;;;;;;;;;;;;;;;31.02;26.56;94459.47;4982952;28;7103;-63
2023/07/07 13:26:56;;;;;;;;;;;;;;;31.02;27.14;94454.66;4986679;28;6891;-62
2023/07/07 13:29:28;;;;;;;;;;;;;;;31.04;25.88;94449.28;4932577;28;7236;-63
2023/07/07 13:31:55;;;;;;;;;;;;;;;31.08;25.73;94451.75;4947056;28;7220;-62
2023/07/07 13:34:28;;;;;;;;;;;;;;;31.12;26.58;94450.09;4933587;28;7106;-63
2023/07/07 13:36:53;;;;;;;;;;;;;;;31.12;25.91;94443.81;4933816;28;7915;-63
2023/07/07 13:39:29;;;;;;;;;;;;;;;31.18;25.62;94447.16;4933200;28;8660;-63
2023/07/07 13:42:00;;;;;;;;;;;;;;;31.31;26.10;94449.84;4928853;28;9402;-63
2023/07/07 13:44:26;;;;;;;;;;;;;;;31.39;25.47;94447.81;4929208;28;7331;-63
2023/07/07 13:47:04;;;;;;;;;;;;;;;31.41;25.31;94445.28;4930612;28;7206;-62
2023/07/07 13:49:34;;;;;;;;;;;;;;;31.42;25.45;94437.69;4929227;28;8740;-63
2023/07/07 13:52:02;;;;;;;;;;;;;;;31.46;25.71;94447.16;4946340;28;7638;-63
2023/07/07 13:54:28;;;;;;;;;;;;;;;31.48;24.65;94438.25;4944748;28;7092;-63
2023/07/07 13:57:03;;;;;;;;;;;;;;;31.47;24.66;94440.31;4930408;28;8682;-63
2023/07/07 13:59:35;;;;;;;;;;;;;;;31.47;24.47;94431.22;4926899;28;7604;-63
2023/07/07 14:02:02;;;;;;;;;;;;;;;31.44;24.83;94433.06;4944875;28;8495;-63